Time;durP1;ratioP1;P1;durP2;ratioP2;P2;SDS_P1;SDS_P2;PMS_P1;PMS_P2;Temp;Humidity;BMP_temperature;BMP_pressure;BME280_temperature;BME280_humidity;BME280_pressure;Samples;Min_cycle;Max_cycle;Signal;HPM_P1;HPM_P2
2021/09/29 00:00:27;;;;;;;4.77;4.33;;;;;;;15.75;70.95;100594.72;5029298;28;20402;-76
2021/09/29 00:02:52;;;;;;;5.13;4.35;;;;;;;15.74;71.23;100595.81;5029207;28;20457;-76
2021/09/29 00:05:18;;;;;;;5.30;4.40;;;;;;;15.71;71.57;100593.63;5031589;28;20410;-76
2021/09/29 00:07:43;;;;;;;6.55;5.00;;;;;;;15.70;72.08;100594.75;5031475;28;23082;-76
2021/09/29 00:10:10;;;;;;;7.93;5.03;;;;;;;15.68;72.16;100588.72;5033694;28;20400;-76
2021/09/29 00:12:35;;;;;;;5.55;4.82;;;;;;;15.61;71.83;100596.38;5032339;28;20435;-75
2021/09/29 00:15:00;;;;;;;5.45;4.90;;;;;;;15.51;72.09;100596.41;5022869;28;20924;-76
2021/09/29 00:17:25;;;;;;;5.90;5.33;;;;;;;15.45;72.18;100609.19;5023354;28;20469;-76
2021/09/29 00:19:51;;;;;;;5.60;4.93;;;;;;;15.32;72.68;100612.47;5026997;28;20487;-76
2021/09/29 00:22:16;;;;;;;6.93;5.27;;;;;;;15.27;72.75;100612.47;5019590;28;20428;-76
2021/09/29 00:24:42;;;;;;;5.50;5.00;;;;;;;15.26;72.76;100607.28;5031820;28;20430;-76
2021/09/29 00:27:07;;;;;;;6.40;5.35;;;;;;;15.24;72.80;100609.47;5042116;28;20418;-76
2021/09/29 00:29:33;;;;;;;6.20;5.10;;;;;;;15.19;73.02;100606.72;5027974;28;20491;-76
2021/09/29 00:31:59;;;;;;;5.95;5.28;;;;;;;15.20;73.10;100594.72;5015474;28;20779;-76
2021/09/29 00:34:36;;;;;;;7.65;5.43;;;;;;;15.24;73.24;100602.09;5018243;28;20429;-76
2021/09/29 00:37:02;;;;;;;7.25;6.15;;;;;;;15.31;72.81;100610.03;5030645;28;20890;-76
2021/09/29 00:39:28;;;;;;;6.75;5.40;;;;;;;15.31;73.04;100610.03;5025725;28;20837;-76
2021/09/29 00:41:54;;;;;;;6.27;5.50;;;;;;;15.33;72.82;100597.72;5031005;28;20441;-76
2021/09/29 00:44:20;;;;;;;7.80;5.28;;;;;;;15.36;72.89;100594.44;5019351;28;20448;-76
2021/09/29 00:46:45;;;;;;;6.30;5.70;;;;;;;15.40;72.51;100592.81;5046557;28;20415;-76
2021/09/29 00:49:12;;;;;;;7.53;5.80;;;;;;;15.32;72.72;100593.34;5025707;28;20401;-76
2021/09/29 00:51:37;;;;;;;7.93;5.90;;;;;;;15.25;73.24;100598.25;5021013;28;20435;-76
2021/09/29 00:54:04;;;;;;;6.00;5.43;;;;;;;15.26;73.17;100593.63;5019078;28;20471;-76
2021/09/29 00:56:29;;;;;;;9.48;6.07;;;;;;;15.30;73.05;100594.72;5013476;28;20451;-76
2021/09/29 00:58:55;;;;;;;5.60;5.10;;;;;;;15.25;73.25;100595.53;5038422;28;20403;-75
2021/09/29 01:01:20;;;;;;;7.10;5.65;;;;;;;15.23;73.51;100600.47;5032220;28;20490;-76
2021/09/29 01:03:47;;;;;;;6.70;5.60;;;;;;;15.21;73.50;100599.09;5029644;28;20488;-76
2021/09/29 01:06:35;;;;;;;6.13;5.40;;;;;;;15.21;73.65;100597.19;5031211;28;20777;-76
2021/09/29 01:09:23;;;;;;;5.93;5.47;;;;;;;15.31;73.30;100583.50;5029242;28;20399;-76
2021/09/29 01:12:01;;;;;;;11.23;5.90;;;;;;;15.27;73.35;100582.44;5032097;28;20429;-76
2021/09/29 01:14:36;;;;;;;7.10;5.72;;;;;;;15.32;73.06;100579.69;5026520;28;20509;-76
2021/09/29 01:17:03;;;;;;;6.60;5.93;;;;;;;15.39;72.99;100587.63;5019859;28;22917;-75
2021/09/29 01:19:49;;;;;;;7.07;5.70;;;;;;;15.44;73.06;100588.44;5031709;28;20449;-76
2021/09/29 01:22:40;;;;;;;5.50;5.10;;;;;;;15.43;72.92;100589.53;5029574;28;20403;-76
2021/09/29 01:25:12;;;;;;;9.05;5.53;;;;;;;15.49;72.71;100582.19;5011288;28;20402;-76
2021/09/29 01:27:40;;;;;;;5.72;5.00;;;;;;;15.52;72.70;100581.63;5029147;28;20411;-75
2021/09/29 01:30:06;;;;;;;5.33;4.83;;;;;;;15.48;72.82;100589.56;5030391;28;20405;-75
2021/09/29 01:32:32;;;;;;;8.45;5.28;;;;;;;15.47;72.82;100596.09;5023722;28;20439;-76
2021/09/29 01:34:57;;;;;;;6.50;4.68;;;;;;;15.39;73.27;100595.81;5023932;28;20423;-76
2021/09/29 01:37:23;;;;;;;6.03;5.53;;;;;;;15.27;73.48;100596.09;5025630;28;20403;-75
2021/09/29 01:39:50;;;;;;;7.97;5.97;;;;;;;15.19;73.63;100604.00;5029455;28;20429;-76
2021/09/29 01:42:15;;;;;;;9.65;5.55;;;;;;;15.12;74.15;100601.53;5031714;28;20396;-76
2021/09/29 01:44:41;;;;;;;6.65;5.70;;;;;;;15.04;74.17;100613.00;5029281;28;20937;-76
2021/09/29 01:47:06;;;;;;;10.47;6.57;;;;;;;14.99;74.63;100605.59;5031470;28;20390;-76
2021/09/29 01:49:39;;;;;;;10.00;6.35;;;;;;;14.95;74.80;100609.97;5034320;28;20412;-75
2021/09/29 01:52:07;;;;;;;8.38;6.32;;;;;;;14.94;75.01;100605.59;5027537;28;20888;-76
2021/09/29 01:54:37;;;;;;;7.23;6.53;;;;;;;15.01;74.53;100603.44;5025583;28;20521;-75
2021/09/29 01:57:03;;;;;;;10.75;6.40;;;;;;;15.02;74.76;100604.25;5030473;28;20407;-76
2021/09/29 01:59:28;;;;;;;8.10;6.90;;;;;;;15.06;74.41;100602.63;5030306;28;20441;-76
2021/09/29 02:08:38;;;;;;;9.07;7.03;;;;;;;14.97;74.73;100606.97;5021795;28;20426;-76
2021/09/29 02:11:03;;;;;;;8.33;7.00;;;;;;;14.99;74.51;100602.88;5026601;28;20446;-76
2021/09/29 02:13:30;;;;;;;12.60;8.13;;;;;;;14.98;74.51;100603.16;5032272;28;20440;-76
2021/09/29 02:15:56;;;;;;;7.78;6.97;;;;;;;15.01;74.27;100602.63;5020791;28;20427;-76
2021/09/29 02:18:21;;;;;;;9.93;6.83;;;;;;;15.07;74.33;100607.00;5030428;28;20423;-76
2021/09/29 02:20:46;;;;;;;9.10;6.80;;;;;;;15.10;73.87;100611.09;5025180;28;20399;-76
2021/09/29 02:23:12;;;;;;;8.27;6.60;;;;;;;15.08;73.41;100609.44;5029141;28;20430;-76
2021/09/29 02:25:37;;;;;;;11.37;6.50;;;;;;;15.03;73.66;100605.88;5017732;28;20451;-76
2021/09/29 02:28:02;;;;;;;9.40;6.63;;;;;;;15.04;73.59;100608.34;5025104;28;20807;-76
2021/09/29 02:30:28;;;;;;;10.03;6.67;;;;;;;14.90;74.01;100617.31;5023517;28;20399;-76
2021/09/29 02:32:53;;;;;;;7.37;6.57;;;;;;;14.90;74.51;100620.06;5020492;28;20408;-76
2021/09/29 02:35:19;;;;;;;10.67;6.77;;;;;;;14.87;74.21;100628.78;5026090;28;20902;-76
2021/09/29 02:37:44;;;;;;;9.40;6.90;;;;;;;14.86;74.25;100621.66;5026913;28;20477;-76
2021/09/29 02:40:10;;;;;;;7.90;7.10;;;;;;;14.85;74.27;100625.50;4990936;28;20395;-76
2021/09/29 02:42:35;;;;;;;8.13;7.20;;;;;;;14.74;74.55;100627.38;4990230;28;20549;-76
2021/09/29 02:45:01;;;;;;;8.63;7.47;;;;;;;14.84;74.34;100630.13;4978668;28;20956;-76
2021/09/29 02:47:27;;;;;;;11.23;6.83;;;;;;;14.87;73.99;100628.78;5011913;28;20398;-76
2021/09/29 02:49:52;;;;;;;7.83;6.93;;;;;;;14.87;73.82;100629.59;4980933;28;20476;-76
2021/09/29 02:52:18;;;;;;;9.70;7.37;;;;;;;14.83;73.85;100628.50;5006548;28;20904;-76
2021/09/29 02:54:43;;;;;;;8.40;6.43;;;;;;;14.69;74.33;100641.00;4974757;28;20548;-76
2021/09/29 02:57:08;;;;;;;9.77;6.73;;;;;;;14.70;74.52;100639.91;4978135;28;20885;-76
2021/09/29 02:59:33;;;;;;;10.53;7.63;;;;;;;14.66;74.56;100637.97;4984577;28;20543;-76
2021/09/29 03:01:59;;;;;;;8.57;6.63;;;;;;;14.70;74.55;100633.63;4985526;28;20410;-76
2021/09/29 03:04:24;;;;;;;9.03;7.67;;;;;;;14.69;74.68;100640.16;4990115;28;20423;-76
2021/09/29 03:06:49;;;;;;;10.50;7.03;;;;;;;14.65;75.23;100639.09;4990393;28;20414;-76
2021/09/29 03:09:15;;;;;;;7.20;6.50;;;;;;;14.69;75.01;100640.16;4991138;28;20444;-76
2021/09/29 03:11:41;;;;;;;13.07;7.38;;;;;;;14.71;74.70;100638.00;4977852;28;20413;-76
2021/09/29 03:14:06;;;;;;;9.57;7.00;;;;;;;14.68;75.00;100633.91;4986029;28;20886;-76
2021/09/29 03:16:31;;;;;;;12.02;7.13;;;;;;;14.73;74.81;100636.66;4982308;28;20404;-76
2021/09/29 03:18:57;;;;;;;10.47;7.10;;;;;;;14.73;74.72;100644.00;5006559;28;20394;-76
2021/09/29 03:21:22;;;;;;;8.15;6.25;;;;;;;14.70;74.90;100641.81;4984188;28;20414;-76
2021/09/29 03:23:47;;;;;;;7.90;6.43;;;;;;;14.60;75.08;100642.59;4983762;28;20402;-76
2021/09/29 03:26:13;;;;;;;10.17;6.73;;;;;;;14.58;74.89;100639.31;4991045;28;20489;-75
2021/09/29 03:28:38;;;;;;;9.80;6.87;;;;;;;14.61;74.98;100646.97;4985096;28;20404;-76
2021/09/29 03:31:04;;;;;;;8.38;7.00;;;;;;;14.63;75.01;100657.59;4983451;28;20481;-76
2021/09/29 03:33:29;;;;;;;13.43;6.33;;;;;;;14.69;74.71;100651.91;4980353;28;20422;-76
2021/09/29 03:35:54;;;;;;;8.23;6.10;;;;;;;14.66;74.55;100652.44;4979110;28;20467;-76
2021/09/29 03:38:20;;;;;;;9.87;6.20;;;;;;;14.60;74.88;100656.22;4980768;28;20901;-76
2021/09/29 03:40:45;;;;;;;8.07;6.30;;;;;;;14.56;75.00;100655.13;4987535;28;20484;-76
2021/09/29 03:43:10;;;;;;;8.70;6.27;;;;;;;14.55;75.14;100659.75;4987143;28;20609;-76
2021/09/29 03:45:35;;;;;;;9.33;6.33;;;;;;;14.51;75.26;100658.66;4987443;28;20798;-76
2021/09/29 03:48:01;;;;;;;9.57;6.50;;;;;;;14.47;75.59;100660.28;4987922;28;20805;-76
2021/09/29 03:50:28;;;;;;;8.67;6.50;;;;;;;14.48;75.36;100650.19;4987359;28;20404;-76
2021/09/29 03:52:54;;;;;;;10.25;6.82;;;;;;;14.44;75.49;100657.25;4981926;28;20412;-76
2021/09/29 03:55:19;;;;;;;9.33;7.63;;;;;;;14.43;75.23;100653.69;4984345;28;20820;-76
2021/09/29 03:57:45;;;;;;;9.90;7.40;;;;;;;14.42;75.62;100659.44;4985695;28;20406;-76
2021/09/29 04:00:12;;;;;;;9.73;6.80;;;;;;;14.40;75.54;100659.69;4979476;28;21007;-76
2021/09/29 04:02:38;;;;;;;9.15;7.35;;;;;;;14.35;75.83;100653.41;4978751;28;20455;-76
2021/09/29 04:05:05;;;;;;;8.55;7.63;;;;;;;14.34;75.75;100659.94;4988024;28;20430;-76
2021/09/29 04:07:30;;;;;;;9.35;6.55;;;;;;;14.33;76.12;100650.94;4981685;28;20393;-76
2021/09/29 04:09:55;;;;;;;7.67;6.27;;;;;;;14.33;75.55;100653.66;4993281;28;20754;-75
2021/09/29 04:12:21;;;;;;;11.40;6.30;;;;;;;14.30;75.70;100647.88;4989603;28;20407;-76
2021/09/29 04:14:51;;;;;;;8.73;6.43;;;;;;;14.31;75.63;100652.25;4991426;28;20426;-76
2021/09/29 04:17:16;;;;;;;8.85;6.35;;;;;;;14.27;75.92;100649.22;4991696;28;20419;-76
2021/09/29 04:19:42;;;;;;;8.67;6.87;;;;;;;14.23;75.82;100658.19;4992653;28;20817;-76
2021/09/29 04:22:10;;;;;;;9.45;6.20;;;;;;;14.20;75.80;100662.28;4992474;28;20406;-76
2021/09/29 04:24:37;;;;;;;7.97;5.93;;;;;;;14.17;76.00;100667.44;4991092;28;20414;-76
2021/09/29 04:27:02;;;;;;;7.03;6.00;;;;;;;14.21;76.31;100658.47;4989931;28;20399;-76
2021/09/29 04:29:27;;;;;;;8.40;5.80;;;;;;;14.24;75.79;100655.22;4989639;28;20880;-76
2021/09/29 04:31:53;;;;;;;6.60;5.43;;;;;;;14.24;75.70;100663.38;4987364;28;20407;-76
2021/09/29 04:34:18;;;;;;;7.97;5.70;;;;;;;14.28;75.55;100666.41;4983368;28;20446;-76
2021/09/29 04:36:46;;;;;;;9.73;5.97;;;;;;;14.30;75.49;100666.97;4985128;28;20425;-76
2021/09/29 04:39:11;;;;;;;10.40;5.97;;;;;;;14.34;75.69;100660.75;4986795;28;20414;-75
2021/09/29 04:41:36;;;;;;;8.77;5.23;;;;;;;14.42;75.28;100659.44;4985168;28;20766;-76
2021/09/29 04:44:02;;;;;;;9.87;5.20;;;;;;;14.48;75.01;100656.47;4990720;28;20403;-76
2021/09/29 04:46:27;;;;;;;6.10;5.10;;;;;;;14.49;75.13;100658.09;4990693;28;20480;-76
2021/09/29 04:48:52;;;;;;;7.55;5.15;;;;;;;14.45;75.29;100662.47;4982577;28;20422;-77
2021/09/29 04:51:18;;;;;;;5.80;4.60;;;;;;;14.40;75.66;100656.97;4987554;28;20414;-77
2021/09/29 04:53:43;;;;;;;6.07;5.47;;;;;;;14.37;75.56;100659.41;4984815;28;20416;-76
2021/09/29 04:56:08;;;;;;;6.60;5.20;;;;;;;14.42;75.64;100660.22;4988907;28;20413;-77
2021/09/29 04:58:33;;;;;;;9.17;5.60;;;;;;;14.50;75.57;100657.00;4989417;28;20398;-76
2021/09/29 05:00:59;;;;;;;9.17;5.17;;;;;;;14.60;75.12;100655.41;4978773;28;20778;-77
2021/09/29 05:03:24;;;;;;;7.17;4.97;;;;;;;14.58;74.85;100657.59;4987978;28;20437;-76
2021/09/29 05:05:49;;;;;;;7.70;4.80;;;;;;;14.58;75.18;100663.06;4984241;28;20405;-76
2021/09/29 05:08:24;;;;;;;9.27;4.80;;;;;;;14.59;74.91;100664.69;4990427;28;20402;-76
2021/09/29 05:11:02;;;;;;;8.75;4.43;;;;;;;14.51;75.20;100672.31;4995985;28;20413;-76
2021/09/29 05:13:31;;;;;;;10.20;5.68;;;;;;;14.49;75.39;100663.53;4989511;28;20395;-76
2021/09/29 05:15:58;;;;;;;7.82;5.00;;;;;;;14.50;75.13;100659.75;4983807;28;20415;-76
2021/09/29 05:18:23;;;;;;;7.38;4.70;;;;;;;14.47;75.61;100652.09;4985909;28;20408;-76
2021/09/29 05:20:49;;;;;;;8.30;4.60;;;;;;;14.47;75.51;100654.00;4991686;28;20806;-76
2021/09/29 05:23:14;;;;;;;6.22;4.55;;;;;;;14.47;75.63;100654.81;5021148;28;20497;-76
2021/09/29 05:25:40;;;;;;;6.10;4.30;;;;;;;14.47;75.82;100654.81;4993126;28;20422;-77
2021/09/29 05:28:07;;;;;;;5.93;4.97;;;;;;;14.49;75.37;100654.53;4967077;28;20420;-77
2021/09/29 05:30:33;;;;;;;6.88;4.45;;;;;;;14.41;75.32;100669.53;4984250;28;20418;-76
2021/09/29 05:32:58;;;;;;;6.33;4.67;;;;;;;14.38;75.54;100667.31;4991170;28;20488;-76
2021/09/29 05:35:23;;;;;;;9.73;4.90;;;;;;;14.33;75.90;100659.09;4994378;28;20414;-77
2021/09/29 05:37:49;;;;;;;8.90;4.67;;;;;;;14.32;75.54;100662.91;4991187;28;20391;-77
2021/09/29 05:40:15;;;;;;;7.63;5.03;;;;;;;14.28;75.75;100669.13;4980745;28;20408;-77
2021/09/29 05:42:40;;;;;;;9.97;4.60;;;;;;;14.26;76.14;100669.38;4997984;28;20897;-78
2021/09/29 05:45:06;;;;;;;7.27;4.47;;;;;;;14.28;75.77;100672.69;4999616;28;20441;-76
2021/09/29 05:47:31;;;;;;;5.93;3.65;;;;;;;14.35;75.62;100667.84;4992646;28;20512;-77
2021/09/29 05:49:56;;;;;;;4.90;3.80;;;;;;;14.41;75.39;100674.97;4986662;28;20903;-77
2021/09/29 05:52:22;;;;;;;5.45;4.18;;;;;;;14.41;75.21;100674.97;4980276;28;20396;-76
2021/09/29 05:54:47;;;;;;;7.33;3.83;;;;;;;14.40;75.41;100673.31;4982708;28;20416;-77
2021/09/29 05:57:13;;;;;;;6.70;3.73;;;;;;;14.48;75.14;100672.84;4983550;28;20398;-77
2021/09/29 05:59:39;;;;;;;7.70;3.67;;;;;;;14.53;74.97;100672.84;4985867;28;20406;-77
2021/09/29 06:02:04;;;;;;;6.80;4.10;;;;;;;14.55;74.54;100672.59;4986106;28;20418;-77
2021/09/29 06:04:30;;;;;;;7.03;3.67;;;;;;;14.53;74.53;100672.00;4984147;28;20415;-77
2021/09/29 06:06:57;;;;;;;6.33;3.00;;;;;;;14.48;75.01;100675.56;4990995;28;20411;-77
2021/09/29 06:09:23;;;;;;;3.85;2.95;;;;;;;14.52;74.89;100675.84;4981129;28;21052;-77
2021/09/29 06:11:48;;;;;;;3.67;2.53;;;;;;;14.55;74.82;100675.31;5014996;28;20473;-77
2021/09/29 06:14:15;;;;;;;5.17;2.83;;;;;;;14.59;74.76;100673.69;4990740;28;20516;-77
2021/09/29 06:16:44;;;;;;;3.38;2.67;;;;;;;14.67;74.93;100677.81;4980429;28;20436;-77
2021/09/29 06:19:10;;;;;;;3.43;2.37;;;;;;;14.69;74.42;100673.72;4981669;28;20964;-77
2021/09/29 06:21:36;;;;;;;7.25;3.15;;;;;;;14.74;74.17;100676.50;4976507;28;20404;-76
2021/09/29 06:24:02;;;;;;;5.63;2.95;;;;;;;14.76;74.07;100687.13;5013155;28;21052;-77
2021/09/29 06:26:27;;;;;;;3.70;2.30;;;;;;;14.79;73.71;100679.22;4985918;28;20421;-77
2021/09/29 06:28:52;;;;;;;4.60;2.22;;;;;;;14.82;73.62;100678.69;4986652;28;20878;-76
2021/09/29 06:31:18;;;;;;;3.67;2.43;;;;;;;14.82;73.51;100686.88;4982071;28;20455;-77
2021/09/29 06:33:45;;;;;;;6.97;2.13;;;;;;;14.84;73.43;100687.44;5001010;28;20426;-77
2021/09/29 06:36:10;;;;;;;5.53;2.23;;;;;;;14.84;73.76;100686.63;4996015;28;20447;-77
2021/09/29 06:38:35;;;;;;;4.50;2.40;;;;;;;14.84;73.43;100694.81;4989946;28;20889;-77
2021/09/29 06:41:01;;;;;;;4.97;2.03;;;;;;;14.80;73.32;100693.69;4991124;28;20871;-77
2021/09/29 06:43:26;;;;;;;4.53;2.77;;;;;;;14.74;73.64;100690.13;4986879;28;20422;-77
2021/09/29 06:45:52;;;;;;;4.27;2.57;;;;;;;14.76;73.43;100682.47;4983678;28;20438;-77
2021/09/29 06:48:17;;;;;;;5.78;3.17;;;;;;;14.78;73.62;100684.97;4981121;28;20402;-77
2021/09/29 06:50:42;;;;;;;7.67;4.17;;;;;;;14.84;73.48;100692.06;4977534;28;20446;-77
2021/09/29 06:53:18;;;;;;;4.47;2.10;;;;;;;14.86;73.71;100693.44;4982129;28;20422;-77
2021/09/29 06:55:44;;;;;;;5.25;2.75;;;;;;;14.95;73.35;100699.22;4996638;28;20506;-77
2021/09/29 06:58:09;;;;;;;6.22;2.50;;;;;;;14.97;73.19;100688.84;4991986;28;20425;-77
2021/09/29 07:00:35;;;;;;;5.67;2.37;;;;;;;15.06;72.64;100698.16;4990388;28;20406;-77
2021/09/29 07:03:00;;;;;;;5.40;2.40;;;;;;;15.15;72.60;100693.00;4989579;28;20814;-76
2021/09/29 07:05:26;;;;;;;4.57;2.13;;;;;;;15.15;72.45;100696.53;4988467;28;20399;-76
2021/09/29 07:07:52;;;;;;;3.85;2.15;;;;;;;15.22;72.32;100688.06;4990828;28;20410;-77
2021/09/29 07:10:17;;;;;;;4.05;2.53;;;;;;;15.31;71.93;100691.94;4986583;28;20401;-77
2021/09/29 07:12:43;;;;;;;6.32;2.60;;;;;;;15.32;71.94;100680.72;4991012;28;20402;-77
2021/09/29 07:15:09;;;;;;;6.03;2.10;;;;;;;15.30;71.69;100687.56;4986215;28;20501;-77
2021/09/29 07:17:35;;;;;;;6.82;2.35;;;;;;;15.29;71.74;100691.38;4991963;28;20409;-78
2021/09/29 07:20:03;;;;;;;4.90;2.10;;;;;;;15.28;71.50;100681.56;4989912;28;21088;-77
2021/09/29 07:22:28;;;;;;;4.88;1.85;;;;;;;15.29;71.20;100678.53;4989665;28;20418;-77
2021/09/29 07:24:55;;;;;;;4.90;1.67;;;;;;;15.38;71.17;100687.84;4986511;28;20400;-78
2021/09/29 07:27:21;;;;;;;7.13;2.08;;;;;;;15.42;70.86;100680.75;5023792;28;20408;-77
2021/09/29 07:29:46;;;;;;;4.63;1.73;;;;;;;15.46;70.75;100683.75;4988180;28;20414;-78
2021/09/29 07:32:11;;;;;;;5.93;1.50;;;;;;;15.59;70.93;100686.00;4990645;28;20871;-77
2021/09/29 07:34:36;;;;;;;4.00;1.80;;;;;;;15.65;70.16;100687.63;4992627;28;20422;-77
2021/09/29 07:37:02;;;;;;;4.53;1.50;;;;;;;15.69;70.26;100686.00;4984316;28;20417;-78
2021/09/29 07:39:27;;;;;;;4.27;1.83;;;;;;;15.70;69.84;100695.00;4992762;28;20984;-77
2021/09/29 07:41:53;;;;;;;4.30;1.37;;;;;;;15.66;70.06;100688.44;4975413;28;20428;-77
2021/09/29 07:44:18;;;;;;;2.63;1.83;;;;;;;15.64;70.18;100687.91;4981473;28;20499;-77
2021/09/29 07:46:44;;;;;;;1.73;1.20;;;;;;;15.68;70.05;100691.72;5016769;28;20444;-77
2021/09/29 07:49:11;;;;;;;4.13;1.08;;;;;;;15.69;69.75;100683.25;4987089;28;20417;-77
2021/09/29 07:51:37;;;;;;;4.30;1.60;;;;;;;15.80;70.17;100687.66;4989182;28;21383;-77
2021/09/29 07:54:03;;;;;;;5.13;1.30;;;;;;;15.81;69.55;100674.78;4983336;28;20451;-77
2021/09/29 07:56:28;;;;;;;3.63;1.17;;;;;;;15.85;69.39;100673.97;4984892;28;20395;-77
2021/09/29 07:58:53;;;;;;;3.07;0.97;;;;;;;16.11;68.23;100669.28;4987212;28;20407;-77
2021/09/29 08:01:18;;;;;;;2.00;1.57;;;;;;;16.43;67.00;100668.94;4987555;28;20970;-77
2021/09/29 08:03:45;;;;;;;1.90;1.00;;;;;;;16.52;66.46;100681.78;4990341;28;20420;-77
2021/09/29 08:06:10;;;;;;;1.65;1.00;;;;;;;16.57;65.82;100687.25;4990058;28;20901;-77
2021/09/29 08:08:36;;;;;;;2.93;1.00;;;;;;;16.54;65.73;100685.03;4988631;28;20415;-77
2021/09/29 08:11:01;;;;;;;2.50;0.90;;;;;;;16.54;65.23;100676.84;4984993;28;20422;-78
2021/09/29 08:13:26;;;;;;;3.40;1.80;;;;;;;16.59;65.40;100681.50;4988737;28;20475;-77
2021/09/29 08:15:52;;;;;;;1.67;0.90;;;;;;;16.69;65.06;100669.69;4986775;28;20478;-78
2021/09/29 08:18:18;;;;;;;3.35;1.10;;;;;;;16.78;65.22;100685.25;4975671;28;20412;-77
2021/09/29 08:20:43;;;;;;;3.08;1.20;;;;;;;16.84;65.06;100692.34;4988911;28;20408;-77
2021/09/29 08:23:44;;;;;;;4.60;1.50;;;;;;;16.88;65.30;100687.13;4985628;28;20391;-77
2021/09/29 08:34:19;;;;;;;3.45;0.90;;;;;;;17.10;64.13;100696.59;4988717;28;20429;-77
2021/09/29 08:36:52;;;;;;;1.92;0.88;;;;;;;17.33;63.33;100699.75;4986850;28;20418;-78
2021/09/29 08:39:31;;;;;;;4.47;1.20;;;;;;;17.60;62.96;100700.97;4980383;28;20392;-78
2021/09/29 08:42:04;;;;;;;3.90;1.10;;;;;;;17.63;62.67;100696.84;4984645;28;20404;-77
2021/09/29 08:44:54;;;;;;;10.07;1.43;;;;;;;17.83;62.30;100698.59;4989999;28;20407;-77
2021/09/29 08:52:22;;;;;;;2.10;0.85;;;;;;;17.61;63.15;100699.06;4977978;28;20892;-77
2021/09/29 09:16:31;;;;;;;4.18;1.00;;;;;;;17.75;63.36;100702.75;4990944;28;20493;-79
2021/09/29 09:18:57;;;;;;;5.60;0.98;;;;;;;17.51;63.68;100699.91;4990798;28;20407;-77
2021/09/29 09:21:23;;;;;;;4.90;1.00;;;;;;;17.33;64.84;100697.81;4991478;28;20481;-77
2021/09/29 09:23:49;;;;;;;2.50;1.20;;;;;;;17.37;65.59;100692.59;4986327;28;20495;-77
2021/09/29 09:26:17;;;;;;;4.47;1.50;;;;;;;17.31;66.47;100693.75;5007222;28;20827;-78
2021/09/29 09:28:43;;;;;;;4.03;1.52;;;;;;;17.32;67.44;100700.88;4985659;28;20422;-78
2021/09/29 09:31:12;;;;;;;6.15;1.58;;;;;;;17.29;67.09;100677.56;4980427;28;20403;-77
2021/09/29 09:33:53;;;;;;;2.40;1.05;;;;;;;17.44;66.87;100688.44;4990380;28;20889;-77
2021/09/29 09:36:29;;;;;;;3.43;0.97;;;;;;;17.57;65.45;100685.09;4985212;28;20892;-77
2021/09/29 09:38:56;;;;;;;3.22;1.20;;;;;;;17.76;64.78;100687.13;4972983;28;20490;-77
2021/09/29 09:41:23;;;;;;;6.83;1.23;;;;;;;18.09;64.41;100678.88;4982108;28;20415;-77
2021/09/29 09:43:53;;;;;;;3.15;1.15;;;;;;;18.31;63.69;100678.38;4984551;28;20445;-76
2021/09/29 09:46:21;;;;;;;2.88;1.15;;;;;;;18.48;63.46;100675.19;4974496;28;20396;-78
2021/09/29 09:48:58;;;;;;;5.13;1.20;;;;;;;18.38;62.21;100687.09;4972963;28;20400;-78
2021/09/29 09:51:23;;;;;;;4.28;1.15;;;;;;;18.09;62.11;100686.28;4987615;28;20822;-78
2021/09/29 09:53:55;;;;;;;4.00;1.30;;;;;;;17.88;62.82;100691.13;5014732;28;20449;-77
2021/09/29 09:56:25;;;;;;;4.67;1.00;;;;;;;17.75;64.39;100688.25;4983024;28;20395;-78
2021/09/29 09:58:54;;;;;;;3.05;1.48;;;;;;;17.67;63.49;100678.72;4996787;28;20471;-78
2021/09/29 10:01:21;;;;;;;1.85;1.00;;;;;;;17.60;63.35;100678.22;4993936;28;20433;-78
2021/09/29 10:03:47;;;;;;;5.05;1.30;;;;;;;17.91;62.44;100678.78;4985868;28;20467;-78
2021/09/29 10:06:13;;;;;;;2.22;0.90;;;;;;;18.04;62.07;100676.22;4983789;28;20407;-78
2021/09/29 10:08:41;;;;;;;2.58;0.73;;;;;;;18.08;60.40;100668.19;4985214;28;20833;-77
2021/09/29 10:11:21;;;;;;;3.20;1.27;;;;;;;18.28;60.35;100672.66;4989550;28;20881;-77
2021/09/29 10:14:11;;;;;;;3.83;1.00;;;;;;;18.49;59.03;100663.91;4980926;28;20460;-78
2021/09/29 10:23:09;;;;;;;3.10;0.50;;;;;;;20.81;52.68;100645.59;4988171;28;20497;-77
2021/09/29 10:26:08;;;;;;;2.57;1.00;;;;;;;21.89;47.82;100637.25;5003070;28;20887;-78
2021/09/29 10:28:37;;;;;;;2.72;1.08;;;;;;;22.35;48.37;100634.94;4988308;28;20419;-78
2021/09/29 10:34:41;;;;;;;4.10;1.13;;;;;;;23.62;44.33;100632.72;4981480;28;20422;-77
2021/09/29 10:48:28;;;;;;;1.20;0.75;;;;;;;24.02;41.77;100613.06;4984229;28;20418;-77
2021/09/29 10:51:21;;;;;;;2.45;1.08;;;;;;;22.73;43.16;100604.84;4983077;28;20408;-77
2021/09/29 11:08:37;;;;;;;2.92;0.90;;;;;;;21.30;48.90;100610.91;4982281;28;20493;-76
2021/09/29 11:28:11;;;;;;;3.53;0.90;;;;;;;20.83;53.00;100598.44;4984958;28;20961;-77
2021/09/29 11:30:49;;;;;;;3.72;0.88;;;;;;;20.31;56.47;100606.16;4985993;28;20425;-78
2021/09/29 11:33:36;;;;;;;5.72;1.00;;;;;;;20.13;59.97;100609.78;4992224;28;20441;-77
2021/09/29 12:11:09;;;;;;;3.30;1.27;;;;;;;20.03;66.37;100654.81;4977800;28;20892;-77
2021/09/29 12:13:56;;;;;;;4.63;1.00;;;;;;;19.61;65.60;100650.31;4976793;28;20418;-77
2021/09/29 12:16:35;;;;;;;3.90;0.90;;;;;;;19.41;67.30;100656.13;4985689;28;20416;-77
2021/09/29 12:19:10;;;;;;;2.80;0.95;;;;;;;19.12;67.35;100642.53;4983374;28;20411;-77
2021/09/29 12:21:58;;;;;;;3.25;1.02;;;;;;;18.88;68.17;100643.69;4991272;28;20408;-76
2021/09/29 12:24:33;;;;;;;4.95;1.10;;;;;;;18.54;69.09;100643.88;4996181;28;20436;-76
2021/09/29 12:27:01;;;;;;;2.47;1.13;;;;;;;18.38;70.15;100639.63;4991394;28;20453;-76
2021/09/29 12:29:37;;;;;;;5.93;1.10;;;;;;;18.25;71.61;100632.91;4992577;28;20405;-76
2021/09/29 12:32:31;;;;;;;3.92;1.30;;;;;;;18.18;71.83;100631.63;4989839;28;20404;-76
2021/09/29 12:37:39;;;;;;;3.65;1.40;;;;;;;17.98;72.32;100660.88;4982574;28;20571;-76
2021/09/29 12:40:06;;;;;;;6.65;0.93;;;;;;;17.85;72.15;100656.06;4979992;28;20452;-76
2021/09/29 12:42:34;;;;;;;4.28;1.33;;;;;;;17.79;72.85;100661.88;4991067;28;20402;-77
2021/09/29 12:44:59;;;;;;;3.60;0.90;;;;;;;17.63;72.68;100696.84;4987605;28;21029;-77
2021/09/29 12:47:36;;;;;;;3.77;1.20;;;;;;;17.56;73.23;100688.94;4992324;28;20412;-76
2021/09/29 12:50:10;;;;;;;4.18;1.48;;;;;;;17.26;71.59;100710.19;4992616;28;20408;-76
2021/09/29 12:52:37;;;;;;;5.03;0.90;;;;;;;16.69;74.34;100738.13;4987277;28;20410;-78
2021/09/29 12:55:04;;;;;;;3.67;0.80;;;;;;;15.98;77.71;100749.13;4986476;28;20940;-76
2021/09/29 12:57:30;;;;;;;3.73;0.80;;;;;;;15.70;79.63;100746.94;4988709;28;20434;-76
2021/09/29 12:59:59;;;;;;;5.32;0.70;;;;;;;15.56;80.16;100763.03;4990823;28;20402;-76
2021/09/29 13:02:25;;;;;;;1.33;0.50;;;;;;;15.30;79.01;100770.31;4990292;28;20418;-76
2021/09/29 13:04:51;;;;;;;0.30;0.20;;;;;;;15.11;77.15;100774.59;4991466;28;20406;-76
2021/09/29 13:07:17;;;;;;;2.08;0.40;;;;;;;15.00;77.97;100783.81;4988663;28;20406;-76
2021/09/29 13:09:42;;;;;;;0.90;0.23;;;;;;;15.01;78.74;100778.13;4992391;28;20505;-75
2021/09/29 13:12:08;;;;;;;1.50;0.30;;;;;;;15.09;79.52;100779.50;4988531;28;20464;-75
2021/09/29 13:14:33;;;;;;;2.40;0.40;;;;;;;15.15;78.69;100785.81;4985809;28;20806;-76
2021/09/29 13:16:58;;;;;;;2.83;0.60;;;;;;;15.11;79.05;100787.44;4992724;28;20449;-75
2021/09/29 13:19:28;;;;;;;2.30;0.30;;;;;;;15.27;78.99;100784.50;4990335;28;20801;-75
2021/09/29 13:21:57;;;;;;;2.35;0.32;;;;;;;15.37;78.71;100791.91;4987674;28;20387;-75
2021/09/29 13:24:36;;;;;;;1.80;0.40;;;;;;;15.34;78.76;100785.06;4992313;28;20442;-75
2021/09/29 13:37:47;;;;;;;0.40;0.30;;;;;;;15.35;78.40;100818.63;4986692;28;20476;-75
2021/09/29 13:40:13;;;;;;;0.63;0.30;;;;;;;15.47;78.12;100821.97;4979654;28;20393;-76
2021/09/29 13:42:38;;;;;;;0.85;0.63;;;;;;;15.49;78.21;100820.63;4983126;28;20400;-76
2021/09/29 13:45:06;;;;;;;2.50;0.60;;;;;;;15.63;78.80;100820.94;4982745;28;20434;-76
2021/09/29 13:47:32;;;;;;;3.00;0.70;;;;;;;15.67;78.27;100824.81;4976262;28;20445;-76
2021/09/29 13:49:57;;;;;;;1.40;0.40;;;;;;;15.71;78.74;100830.53;4979862;28;20901;-77